Time;durP1;ratioP1;P1;durP2;ratioP2;P2;SDS_P1;SDS_P2;PMS_P1;PMS_P2;Temp;Humidity;BMP_temperature;BMP_pressure;BME280_temperature;BME280_humidity;BME280_pressure;Samples;Min_cycle;Max_cycle;Signal;HPM_P1;HPM_P2
2024/03/18 00:00:16;;;;;;;2.97;2.10;;;;;;;3.25;100.00;97955.59;6310029;28;20204;-49
2024/03/18 00:03:17;;;;;;;2.63;1.80;;;;;;;3.38;99.67;97979.44;6302121;28;20207;-52
2024/03/18 00:06:18;;;;;;;4.60;1.80;;;;;;;3.59;99.48;97971.50;6304820;28;20673;-51
2024/03/18 00:09:20;;;;;;;4.83;2.43;;;;;;;3.54;97.99;97975.72;6288030;28;20218;-50
2024/03/18 00:12:21;;;;;;;3.43;2.30;;;;;;;3.24;99.18;97960.06;6284883;28;20202;-51
2024/03/18 00:15:22;;;;;;;3.77;2.23;;;;;;;3.00;99.68;97947.25;6301715;28;20194;-52
2024/03/18 00:18:24;;;;;;;4.93;2.87;;;;;;;2.97;100.00;97968.72;6300897;28;20661;-52
2024/03/18 00:21:25;;;;;;;4.13;2.37;;;;;;;2.72;100.00;97944.56;6310845;28;20209;-50
2024/03/18 00:24:26;;;;;;;4.27;2.50;;;;;;;3.02;100.00;97959.25;6312184;28;20619;-50
2024/03/18 00:27:27;;;;;;;3.70;2.80;;;;;;;2.96;99.55;97954.75;6313021;28;20201;-53
2024/03/18 00:30:29;;;;;;;4.20;2.53;;;;;;;2.81;99.72;97938.19;6309129;28;20534;-51
2024/03/18 00:33:30;;;;;;;6.90;2.80;;;;;;;2.84;100.00;97949.13;6302666;28;20222;-52
2024/03/18 00:36:31;;;;;;;4.70;2.53;;;;;;;3.02;100.00;97942.66;6299788;28;20198;-52
2024/03/18 00:39:32;;;;;;;3.90;2.47;;;;;;;3.40;100.00;97937.09;6307048;28;20291;-52
2024/03/18 00:42:33;;;;;;;3.10;2.47;;;;;;;3.49;100.00;97944.69;6309567;28;20197;-53
2024/03/18 00:45:34;;;;;;;5.03;2.20;;;;;;;3.35;100.00;97935.88;6304366;28;20216;-52
2024/03/18 00:48:36;;;;;;;6.87;3.40;;;;;;;3.17;100.00;97924.97;6300820;28;20673;-50
2024/03/18 00:51:41;;;;;;;4.87;3.40;;;;;;;3.15;100.00;97929.59;6310656;28;20182;-50
2024/03/18 00:54:42;;;;;;;5.00;3.13;;;;;;;3.14;100.00;97927.16;6300901;28;20285;-52
2024/03/18 00:57:43;;;;;;;10.70;7.47;;;;;;;3.01;100.00;97905.00;6302161;28;20197;-52
2024/03/18 01:00:44;;;;;;;6.57;3.63;;;;;;;3.09;100.00;97919.81;6301092;28;20193;-53
2024/03/18 01:03:45;;;;;;;6.57;3.20;;;;;;;3.09;100.00;97925.09;6300378;28;20193;-52
2024/03/18 01:06:50;;;;;;;3.93;2.93;;;;;;;2.99;100.00;97908.81;6288382;28;20205;-52
2024/03/18 01:09:51;;;;;;;5.17;2.90;;;;;;;3.09;100.00;97922.47;6300988;28;20651;-52
2024/03/18 01:12:55;;;;;;;6.63;2.80;;;;;;;3.04;100.00;97914.31;6301788;28;20235;-53
2024/03/18 01:15:57;;;;;;;6.07;3.10;;;;;;;2.91;100.00;97914.22;6300646;28;20197;-53
2024/03/18 01:18:59;;;;;;;4.97;2.63;;;;;;;2.89;100.00;97916.19;6298232;28;20195;-52
2024/03/18 01:22:00;;;;;;;4.70;2.90;;;;;;;2.90;100.00;97908.09;6307026;28;20236;-51
2024/03/18 01:25:02;;;;;;;6.70;2.60;;;;;;;3.15;100.00;97911.16;6302690;28;20200;-52
2024/03/18 01:28:03;;;;;;;5.30;2.93;;;;;;;3.17;99.58;97898.66;6300223;28;20192;-53
2024/03/18 01:31:05;;;;;;;5.90;3.10;;;;;;;2.95;100.00;97897.81;6304791;28;20192;-52
2024/03/18 01:34:09;;;;;;;5.50;2.90;;;;;;;2.89;100.00;97905.66;6309138;28;20263;-53
2024/03/18 01:37:10;;;;;;;3.33;2.60;;;;;;;2.74;100.00;97882.84;6302974;28;20653;-52
2024/03/18 01:40:13;;;;;;;3.40;2.60;;;;;;;2.61;100.00;97874.84;6300190;28;20418;-54
2024/03/18 01:43:14;;;;;;;5.87;2.73;;;;;;;2.76;100.00;97893.22;6301929;28;20213;-53
2024/03/18 01:46:17;;;;;;;3.47;2.57;;;;;;;2.93;100.00;97885.88;6312080;28;20232;-52
2024/03/18 01:49:18;;;;;;;5.23;2.40;;;;;;;3.23;100.00;97890.00;6304799;28;20201;-54
2024/03/18 01:52:20;;;;;;;6.13;3.33;;;;;;;3.00;100.00;97890.19;6301425;28;20201;-52
2024/03/18 01:55:22;;;;;;;5.43;3.00;;;;;;;2.70;100.00;97893.94;6306519;28;20189;-54
2024/03/18 01:58:25;;;;;;;5.83;4.40;;;;;;;2.62;100.00;97894.88;6315289;28;20230;-53
2024/03/18 02:01:26;;;;;;;5.13;3.30;;;;;;;2.57;100.00;97895.44;6289820;28;20201;-53
2024/03/18 02:04:27;;;;;;;8.03;3.77;;;;;;;2.54;100.00;97900.25;6299428;28;20206;-50
2024/03/18 02:07:30;;;;;;;9.10;3.33;;;;;;;2.34;100.00;97878.97;6299187;28;20197;-51
2024/03/18 02:10:31;;;;;;;5.87;2.90;;;;;;;2.58;100.00;97894.44;6313787;28;20669;-53
2024/03/18 02:13:32;;;;;;;5.93;3.67;;;;;;;2.52;100.00;97868.88;6301960;28;20660;-51
2024/03/18 02:16:33;;;;;;;4.07;3.10;;;;;;;3.05;100.00;97884.34;6301022;28;20732;-51
2024/03/18 02:19:35;;;;;;;5.37;3.40;;;;;;;3.15;100.00;97889.31;6298351;28;20189;-51
2024/03/18 02:22:38;;;;;;;6.70;3.30;;;;;;;2.73;100.00;97883.84;6282444;28;20223;-52
2024/03/18 02:25:39;;;;;;;6.27;3.87;;;;;;;2.62;100.00;97883.53;6295849;28;20186;-52
2024/03/18 02:28:44;;;;;;;6.30;3.60;;;;;;;2.52;100.00;97870.69;6298995;28;20286;-54
2024/03/18 02:31:45;;;;;;;7.87;3.93;;;;;;;3.16;100.00;97872.53;6299913;28;20190;-55
2024/03/18 02:34:46;;;;;;;6.87;3.17;;;;;;;3.20;100.00;97879.03;6282212;28;20237;-52
2024/03/18 02:37:47;;;;;;;6.93;3.70;;;;;;;2.85;100.00;97871.00;6298212;28;20193;-51
2024/03/18 02:40:48;;;;;;;6.83;4.00;;;;;;;2.70;100.00;97865.00;6299730;28;20660;-52
2024/03/18 02:43:50;;;;;;;7.43;3.47;;;;;;;2.59;100.00;97856.59;6300660;28;20716;-53
2024/03/18 02:46:51;;;;;;;7.23;3.27;;;;;;;2.94;100.00;97869.88;6294875;28;20189;-53
2024/03/18 02:49:52;;;;;;;4.90;3.60;;;;;;;2.77;100.00;97871.97;6303434;28;20200;-53
2024/03/18 02:52:54;;;;;;;7.27;3.60;;;;;;;2.55;100.00;97854.53;6298349;28;20680;-52
2024/03/18 02:55:55;;;;;;;5.17;3.00;;;;;;;3.12;100.00;97877.34;6300057;28;20189;-52
2024/03/18 02:58:56;;;;;;;6.17;3.30;;;;;;;2.77;100.00;97858.81;6281973;28;20566;-52
2024/03/18 03:01:57;;;;;;;6.73;3.77;;;;;;;2.64;100.00;97869.19;6298136;28;20248;-51
2024/03/18 03:04:59;;;;;;;6.40;3.50;;;;;;;2.56;100.00;97869.31;6301104;28;20193;-52
2024/03/18 03:08:00;;;;;;;6.20;3.57;;;;;;;2.66;100.00;97866.38;6306236;28;20212;-53
2024/03/18 03:11:04;;;;;;;4.80;3.20;;;;;;;2.59;100.00;97869.75;6305131;28;20185;-53
2024/03/18 03:14:08;;;;;;;10.40;3.33;;;;;;;2.49;100.00;97863.16;6299284;28;20190;-55
2024/03/18 03:17:10;;;;;;;5.97;3.23;;;;;;;2.47;100.00;97862.56;6307373;28;20197;-51
2024/03/18 03:20:12;;;;;;;4.60;3.37;;;;;;;2.95;100.00;97861.00;6312015;28;20284;-52
2024/03/18 03:23:13;;;;;;;4.50;3.60;;;;;;;2.92;100.00;97858.75;6306309;28;20209;-55
2024/03/18 03:26:15;;;;;;;6.43;3.37;;;;;;;2.97;100.00;97860.81;6299785;28;20201;-52
2024/03/18 03:29:16;;;;;;;8.00;3.63;;;;;;;2.93;100.00;97841.16;6283497;28;20200;-53
2024/03/18 03:32:17;;;;;;;8.00;4.07;;;;;;;2.96;100.00;97846.03;6309040;28;20246;-51
2024/03/18 03:35:18;;;;;;;8.50;5.23;;;;;;;2.61;100.00;97845.91;6305304;28;20182;-50
2024/03/18 03:38:19;;;;;;;7.20;4.23;;;;;;;2.44;100.00;97829.53;6310331;28;20719;-52
2024/03/18 03:41:20;;;;;;;5.53;3.73;;;;;;;2.57;100.00;97853.34;6309429;28;20590;-52
2024/03/18 03:44:22;;;;;;;6.83;4.00;;;;;;;2.61;100.00;97853.81;6307514;28;20233;-52
2024/03/18 03:47:23;;;;;;;5.03;3.17;;;;;;;2.55;100.00;97857.97;6312359;28;20196;-50
2024/03/18 03:50:24;;;;;;;5.87;3.57;;;;;;;2.60;100.00;97857.41;6291539;28;20293;-52
2024/03/18 03:53:25;;;;;;;4.37;3.13;;;;;;;2.59;100.00;97861.88;6298652;28;20186;-51
2024/03/18 03:56:26;;;;;;;6.40;3.30;;;;;;;2.44;100.00;97834.81;6277893;28;20198;-53
2024/03/18 03:59:28;;;;;;;5.70;3.20;;;;;;;2.66;100.00;97864.59;6293453;28;20190;-53
2024/03/18 04:02:29;;;;;;;6.20;3.40;;;;;;;2.68;100.00;97857.31;6294549;28;20194;-53
2024/03/18 04:05:30;;;;;;;12.47;3.47;;;;;;;2.75;100.00;97865.25;6289939;28;20195;-53
2024/03/18 04:08:31;;;;;;;4.37;3.30;;;;;;;2.80;100.00;97854.97;6296988;28;20682;-54
2024/03/18 04:11:33;;;;;;;3.43;2.90;;;;;;;2.84;100.00;97859.69;6302653;28;20181;-50
2024/03/18 04:14:35;;;;;;;4.60;3.47;;;;;;;2.59;100.00;97821.59;6299200;28;20186;-52
2024/03/18 04:17:36;;;;;;;4.50;3.37;;;;;;;2.70;100.00;97836.06;6296839;28;20194;-51
2024/03/18 04:20:39;;;;;;;4.80;3.47;;;;;;;2.80;100.00;97858.41;6302413;28;20197;-52
2024/03/18 04:23:40;;;;;;;3.77;3.13;;;;;;;2.79;100.00;97854.16;6298156;28;20205;-54
2024/03/18 04:26:42;;;;;;;5.60;3.10;;;;;;;2.82;100.00;97855.63;6283425;28;20189;-52
2024/03/18 04:29:44;;;;;;;4.70;3.43;;;;;;;2.78;100.00;97849.91;6296286;28;20190;-54
2024/03/18 04:32:48;;;;;;;4.77;3.20;;;;;;;2.80;100.00;97855.78;6306100;28;20190;-54
2024/03/18 04:35:49;;;;;;;5.20;2.83;;;;;;;2.73;100.00;97835.69;6295855;28;20221;-52
2024/03/18 04:38:51;;;;;;;4.73;2.87;;;;;;;2.77;100.00;97850.94;6301893;28;20194;-52
2024/03/18 04:41:52;;;;;;;4.90;3.13;;;;;;;2.77;100.00;97844.84;6313549;28;20574;-52
2024/03/18 04:44:53;;;;;;;4.10;3.10;;;;;;;2.82;100.00;97845.09;6295817;28;20329;-52
2024/03/18 04:47:54;;;;;;;4.93;2.97;;;;;;;2.83;100.00;97847.53;6305139;28;20190;-52
2024/03/18 04:50:56;;;;;;;3.67;2.90;;;;;;;2.78;100.00;97830.69;6301246;28;20566;-49
2024/03/18 04:53:57;;;;;;;5.07;3.40;;;;;;;2.87;100.00;97847.16;6294766;28;20202;-53
2024/03/18 04:56:58;;;;;;;3.93;2.63;;;;;;;2.84;100.00;97845.72;6293102;28;20214;-52
2024/03/18 05:00:00;;;;;;;4.03;2.40;;;;;;;2.86;100.00;97843.72;6292388;28;20965;-52
2024/03/18 05:03:01;;;;;;;4.00;2.83;;;;;;;2.87;100.00;97841.91;6274159;28;20205;-52
2024/03/18 05:06:03;;;;;;;4.87;3.40;;;;;;;2.89;100.00;97847.78;6298165;28;20189;-52
2024/03/18 05:09:08;;;;;;;4.40;2.83;;;;;;;2.76;100.00;97823.00;6292652;28;20209;-53
2024/03/18 05:12:09;;;;;;;4.73;2.93;;;;;;;2.96;100.00;97849.47;6293107;28;20709;-54
2024/03/18 05:15:10;;;;;;;5.80;3.33;;;;;;;2.98;100.00;97841.38;6298209;28;20191;-53
2024/03/18 05:18:11;;;;;;;5.97;3.07;;;;;;;3.04;100.00;97845.88;6296711;28;20881;-53
2024/03/18 05:21:12;;;;;;;5.67;3.07;;;;;;;3.04;100.00;97836.19;6291671;28;20220;-52
2024/03/18 05:24:13;;;;;;;7.00;2.90;;;;;;;2.91;100.00;97819.47;6291929;28;20579;-53
2024/03/18 05:27:16;;;;;;;5.57;2.87;;;;;;;3.13;100.00;97839.50;6291016;28;20193;-54
2024/03/18 05:30:18;;;;;;;5.10;2.93;;;;;;;3.09;100.00;97844.31;6299513;28;20194;-51
2024/03/18 05:33:19;;;;;;;6.73;3.23;;;;;;;3.12;100.00;97848.41;6277425;28;20204;-52
2024/03/18 05:36:20;;;;;;;6.53;3.10;;;;;;;3.23;100.00;97850.50;6288187;28;20198;-53
2024/03/18 05:39:21;;;;;;;5.30;3.13;;;;;;;3.21;100.00;97846.44;6291368;28;20190;-52
2024/03/18 05:42:23;;;;;;;3.47;2.83;;;;;;;3.26;100.00;97849.31;6296529;28;20643;-52
2024/03/18 05:45:24;;;;;;;3.57;2.77;;;;;;;3.35;100.00;97856.09;6291755;28;20227;-53
2024/03/18 05:48:25;;;;;;;4.60;3.10;;;;;;;3.39;100.00;97854.66;6292541;28;20588;-51
2024/03/18 05:51:26;;;;;;;4.30;3.37;;;;;;;3.44;100.00;97856.72;6291097;28;20700;-54
2024/03/18 05:54:27;;;;;;;6.87;3.47;;;;;;;3.53;100.00;97860.84;6283249;28;20198;-53
2024/03/18 05:57:29;;;;;;;5.73;3.30;;;;;;;3.61;100.00;97863.34;6290915;28;20187;-54
2024/03/18 06:00:30;;;;;;;6.63;3.27;;;;;;;3.68;100.00;97860.75;6291798;28;20217;-52
2024/03/18 06:03:31;;;;;;;4.93;2.93;;;;;;;3.75;100.00;97862.41;6290685;28;20756;-54
2024/03/18 06:06:33;;;;;;;5.87;3.03;;;;;;;3.71;100.00;97850.63;6291772;28;20676;-53
2024/03/18 06:09:34;;;;;;;6.70;2.97;;;;;;;3.92;100.00;97864.75;6293958;28;20193;-53
2024/03/18 06:12:35;;;;;;;4.63;3.37;;;;;;;3.97;100.00;97854.41;6293095;28;20182;-52
2024/03/18 06:15:36;;;;;;;3.77;2.90;;;;;;;3.96;99.94;97847.53;6291617;28;20855;-55
2024/03/18 06:18:37;;;;;;;4.93;2.63;;;;;;;4.30;98.10;97844.84;6288666;28;20193;-52
2024/03/18 06:21:45;;;;;;;4.83;2.87;;;;;;;4.33;97.02;97844.41;6293436;28;20193;-52
2024/03/18 06:28:06;;;;;;;4.77;3.10;;;;;;;4.33;98.08;97836.50;6287439;28;20323;-52
2024/03/18 06:31:07;;;;;;;4.30;3.60;;;;;;;4.36;98.00;97832.69;6290629;28;20229;-52
2024/03/18 06:34:09;;;;;;;5.37;3.70;;;;;;;4.46;94.68;97832.31;6277541;28;20336;-51
2024/03/18 06:37:10;;;;;;;4.80;3.50;;;;;;;4.45;93.11;97833.31;6291160;28;20204;-53
2024/03/18 06:40:14;;;;;;;6.67;3.23;;;;;;;4.53;80.32;97820.78;6296821;28;20248;-52
2024/03/18 06:43:15;;;;;;;4.00;2.80;;;;;;;4.62;77.59;97824.00;6295207;28;20211;-52
2024/03/18 06:46:16;;;;;;;7.47;4.00;;;;;;;4.87;80.19;97829.53;6311518;28;20226;-51
2024/03/18 06:49:17;;;;;;;5.30;3.40;;;;;;;4.99;80.35;97822.66;6302878;28;20201;-52
2024/03/18 06:52:18;;;;;;;5.17;3.13;;;;;;;4.84;77.29;97822.84;6295188;28;20189;-53
2024/03/18 06:55:19;;;;;;;7.27;3.13;;;;;;;4.87;79.62;97827.69;6272716;28;20220;-51
2024/03/18 06:58:24;;;;;;;7.00;3.83;;;;;;;4.85;75.34;97827.09;6295122;28;20657;-53
2024/03/18 07:01:26;;;;;;;7.20;3.13;;;;;;;4.85;78.88;97823.66;6295434;28;20185;-53
2024/03/18 07:04:27;;;;;;;5.30;2.93;;;;;;;5.00;76.43;97823.47;6297884;28;20205;-52
2024/03/18 07:07:28;;;;;;;6.37;3.20;;;;;;;5.17;75.29;97829.94;6277958;28;20202;-54
2024/03/18 07:10:29;;;;;;;5.67;2.50;;;;;;;4.94;78.04;97830.38;6295295;28;20197;-52
2024/03/18 07:13:30;;;;;;;4.40;2.80;;;;;;;4.95;80.17;97823.25;6298140;28;20201;-51
2024/03/18 07:16:31;;;;;;;4.80;2.27;;;;;;;4.94;81.53;97832.19;6303341;28;20196;-50
2024/03/18 07:19:32;;;;;;;5.70;2.83;;;;;;;4.97;81.41;97821.22;6294813;28;20227;-53
2024/03/18 07:22:33;;;;;;;5.93;2.40;;;;;;;4.98;81.54;97828.94;6294661;28;20200;-52
2024/03/18 07:25:34;;;;;;;4.80;2.60;;;;;;;4.99;80.81;97825.28;6294370;28;20201;-51
2024/03/18 07:28:35;;;;;;;5.20;4.07;;;;;;;5.16;75.30;97823.03;6294854;28;20197;-52
2024/03/18 07:31:36;;;;;;;7.40;4.63;;;;;;;5.40;72.27;97813.69;6298474;28;20656;-51
2024/03/18 07:34:38;;;;;;;7.50;4.10;;;;;;;5.68;70.03;97829.31;6294565;28;20525;-53
2024/03/18 07:37:39;;;;;;;8.23;4.77;;;;;;;5.64;70.36;97818.31;6294374;28;20201;-50
2024/03/18 07:40:40;;;;;;;7.57;4.07;;;;;;;5.64;71.01;97806.94;6303231;28;20193;-52
2024/03/18 07:43:44;;;;;;;7.27;5.07;;;;;;;6.01;68.91;97823.97;6299256;28;20243;-54
2024/03/18 07:46:45;;;;;;;11.27;5.77;;;;;;;6.01;69.27;97823.13;6298964;28;20892;-53
2024/03/18 07:49:46;;;;;;;7.23;5.13;;;;;;;6.06;70.46;97816.22;6311938;28;20354;-52
2024/03/18 07:52:47;;;;;;;9.50;5.37;;;;;;;6.37;69.93;97815.47;6302278;28;20186;-53
2024/03/18 07:55:58;;;;;;;7.47;6.20;;;;;;;6.80;66.36;97821.91;6302892;28;20210;-53
2024/03/18 07:58:59;;;;;;;10.10;6.27;;;;;;;6.79;64.61;97801.75;6301890;28;20179;-54
2024/03/18 08:02:00;;;;;;;6.90;5.73;;;;;;;7.15;67.02;97814.34;6305585;28;20691;-52
2024/03/18 08:05:01;;;;;;;9.17;6.67;;;;;;;7.46;66.39;97811.59;6303964;28;20191;-52
2024/03/18 08:08:04;;;;;;;10.07;6.73;;;;;;;7.80;65.59;97811.28;6301375;28;20200;-53
2024/03/18 08:11:04;;;;;;;8.03;6.17;;;;;;;7.76;62.00;97797.66;6306660;28;20568;-54
2024/03/18 08:14:06;;;;;;;8.50;6.50;;;;;;;7.91;61.28;97811.34;6299504;28;20201;-52
2024/03/18 08:17:09;;;;;;;11.83;6.60;;;;;;;7.83;60.48;97806.34;6301589;28;20191;-52
2024/03/18 08:20:10;;;;;;;13.57;8.33;;;;;;;7.89;63.24;97804.66;6302812;28;20551;-50
2024/03/18 08:23:11;;;;;;;9.73;7.23;;;;;;;7.96;60.89;97803.53;6301634;28;20205;-55
2024/03/18 08:26:12;;;;;;;10.23;7.07;;;;;;;8.01;62.74;97816.13;6302004;28;20192;-54
2024/03/18 08:29:13;;;;;;;12.77;7.87;;;;;;;7.95;61.81;97809.88;6301519;28;20225;-54
2024/03/18 08:32:14;;;;;;;11.03;7.47;;;;;;;7.83;60.94;97800.22;6305422;28;20649;-52
2024/03/18 08:35:15;;;;;;;11.00;7.90;;;;;;;7.63;61.38;97795.94;6304577;28;20203;-51
2024/03/18 08:38:17;;;;;;;11.23;7.80;;;;;;;7.63;63.34;97774.72;6303004;28;20202;-53
2024/03/18 08:41:18;;;;;;;9.33;7.77;;;;;;;7.89;62.85;97794.84;6317608;28;20560;-52
2024/03/18 08:44:19;;;;;;;13.30;7.90;;;;;;;8.19;62.53;97789.59;6301189;28;20233;-55
2024/03/18 08:47:23;;;;;;;10.87;7.83;;;;;;;8.09;59.61;97786.66;6301347;28;20202;-54
2024/03/18 08:50:24;;;;;;;9.77;7.40;;;;;;;7.66;60.85;97784.09;6305287;28;20244;-54
2024/03/18 08:53:25;;;;;;;9.77;7.03;;;;;;;7.99;60.16;97784.53;6301302;28;20183;-55
2024/03/18 08:56:27;;;;;;;12.83;7.13;;;;;;;8.23;61.02;97777.50;6303353;28;20198;-54
2024/03/18 08:59:29;;;;;;;10.60;7.47;;;;;;;8.56;60.54;97767.47;6317001;28;20194;-54
2024/03/18 09:02:30;;;;;;;11.93;7.40;;;;;;;8.22;58.01;97765.25;6299787;28;20943;-52
2024/03/18 09:05:32;;;;;;;11.77;6.93;;;;;;;8.38;57.67;97749.78;6301711;28;20902;-54
2024/03/18 09:08:33;;;;;;;9.67;6.97;;;;;;;8.45;58.96;97738.03;6299193;28;20186;-55
2024/03/18 09:11:34;;;;;;;13.47;7.33;;;;;;;8.79;57.82;97756.94;6310756;28;20182;-54
2024/03/18 09:14:35;;;;;;;13.27;6.50;;;;;;;8.73;55.85;97755.19;6301989;28;20205;-53
2024/03/18 09:17:36;;;;;;;6.47;5.67;;;;;;;8.83;55.86;97746.66;6301479;28;20196;-55
2024/03/18 09:20:40;;;;;;;9.03;6.60;;;;;;;8.76;56.74;97739.59;6300450;28;20239;-53
2024/03/18 09:23:42;;;;;;;10.43;6.53;;;;;;;9.01;54.80;97739.41;6299699;28;20666;-51
2024/03/18 09:26:43;;;;;;;10.47;6.73;;;;;;;9.11;54.19;97722.88;6304649;28;20194;-54
2024/03/18 09:29:45;;;;;;;11.10;7.10;;;;;;;9.37;54.95;97732.25;6305170;28;20835;-54
2024/03/18 09:32:46;;;;;;;12.20;6.43;;;;;;;9.44;53.58;97735.56;6300210;28;20657;-54
2024/03/18 09:35:48;;;;;;;9.53;6.50;;;;;;;9.55;53.94;97728.63;6305205;28;20292;-54
2024/03/18 09:38:49;;;;;;;10.83;6.80;;;;;;;9.32;52.65;97705.53;6302603;28;20237;-55
2024/03/18 09:41:54;;;;;;;10.77;6.10;;;;;;;9.49;52.87;97725.03;6304348;28;20200;-54
2024/03/18 09:44:55;;;;;;;10.03;6.67;;;;;;;9.28;52.67;97728.31;6300387;28;20236;-54
2024/03/18 09:47:57;;;;;;;11.03;6.33;;;;;;;9.34;52.79;97716.75;6307968;28;20195;-54
2024/03/18 09:51:03;;;;;;;11.97;6.83;;;;;;;9.37;52.72;97716.28;6314210;28;20669;-55
2024/03/18 09:54:13;;;;;;;8.80;5.60;;;;;;;9.31;54.20;97714.56;6294228;28;20200;-54
2024/03/18 09:57:30;;;;;;;12.10;6.53;;;;;;;9.31;54.87;97714.56;6311054;28;20193;-55
2024/03/18 10:00:31;;;;;;;12.37;6.63;;;;;;;9.23;52.77;97709.59;6291307;28;20194;-53
2024/03/18 10:03:32;;;;;;;8.37;6.23;;;;;;;9.15;53.43;97708.09;6307794;28;20666;-51
2024/03/18 10:06:33;;;;;;;9.30;6.37;;;;;;;9.43;53.23;97706.56;6291903;28;20322;-52
2024/03/18 10:09:34;;;;;;;9.03;6.47;;;;;;;9.54;52.62;97700.41;6292446;28;20683;-50
2024/03/18 10:12:35;;;;;;;8.50;5.70;;;;;;;9.55;51.13;97697.50;6286612;28;20197;-52
2024/03/18 10:15:39;;;;;;;10.57;6.07;;;;;;;9.57;51.04;97689.31;6307693;28;20203;-53
2024/03/18 10:18:41;;;;;;;7.67;6.20;;;;;;;9.58;50.30;97696.25;6307270;28;20193;-51
2024/03/18 10:21:42;;;;;;;8.60;6.07;;;;;;;9.48;51.23;97672.91;6295170;28;20201;-51
2024/03/18 10:24:44;;;;;;;9.70;5.93;;;;;;;9.79;51.09;97684.16;6295678;28;20197;-50
2024/03/18 10:27:45;;;;;;;12.07;6.47;;;;;;;9.98;50.61;97682.13;6285241;28;20205;-52
2024/03/18 10:30:47;;;;;;;9.33;5.70;;;;;;;9.83;49.96;97679.97;6317849;28;20557;-53
2024/03/18 10:33:48;;;;;;;5.93;5.17;;;;;;;10.15;50.52;97683.00;6295087;28;20258;-53
2024/03/18 10:36:53;;;;;;;8.30;5.90;;;;;;;10.48;48.67;97678.78;6293251;28;20204;-52
2024/03/18 10:40:06;;;;;;;9.13;5.73;;;;;;;10.61;48.36;97686.47;6300212;28;20209;-53
2024/03/18 10:43:13;;;;;;;9.60;5.57;;;;;;;10.61;48.75;97678.47;6290566;28;20212;-53
2024/03/18 10:46:15;;;;;;;9.13;6.00;;;;;;;10.72;48.28;97685.56;6292532;28;20229;-52
2024/03/18 10:49:21;;;;;;;8.97;6.07;;;;;;;10.87;47.78;97676.19;6291956;28;20193;-52
2024/03/18 10:52:24;;;;;;;10.07;5.60;;;;;;;10.32;48.05;97678.53;6290693;28;20665;-52
2024/03/18 10:55:26;;;;;;;9.63;5.20;;;;;;;10.47;50.19;97677.97;6306009;28;20196;-51
2024/03/18 10:58:29;;;;;;;7.90;5.60;;;;;;;10.35;48.45;97673.78;6300986;28;20553;-54
2024/03/18 11:01:30;;;;;;;9.27;5.97;;;;;;;10.31;48.10;97665.47;6290087;28;20194;-51
2024/03/18 11:04:39;;;;;;;9.87;5.90;;;;;;;10.43;48.67;97674.16;6290819;28;20215;-53
2024/03/18 11:07:41;;;;;;;10.03;5.73;;;;;;;10.58;50.70;97678.94;6299829;28;20267;-52
2024/03/18 11:10:42;;;;;;;9.80;5.87;;;;;;;10.60;47.46;97668.88;6302536;28;20344;-52
2024/03/18 11:13:44;;;;;;;11.50;6.13;;;;;;;10.77;47.79;97672.31;6292252;28;20193;-53
2024/03/18 11:16:45;;;;;;;13.77;6.00;;;;;;;10.56;47.81;97665.88;6290219;28;20189;-52
2024/03/18 11:19:46;;;;;;;8.87;5.40;;;;;;;10.45;48.76;97664.09;6292209;28;20201;-52
2024/03/18 11:22:48;;;;;;;8.67;5.13;;;;;;;10.70;50.64;97654.91;6297889;28;20215;-54
2024/03/18 11:25:54;;;;;;;9.37;6.30;;;;;;;10.33;47.51;97652.69;6295276;28;20205;-52
2024/03/18 11:29:08;;;;;;;10.13;5.63;;;;;;;10.28;49.00;97641.97;6310856;28;20725;-52
2024/03/18 11:32:13;;;;;;;9.37;5.90;;;;;;;10.51;50.26;97641.81;6294347;28;20194;-53
2024/03/18 11:35:17;;;;;;;10.23;6.03;;;;;;;10.54;47.02;97646.69;6277927;28;20220;-53
2024/03/18 11:38:19;;;;;;;9.47;5.67;;;;;;;10.47;47.18;97640.69;6294961;28;20189;-49
2024/03/18 11:41:20;;;;;;;12.80;6.00;;;;;;;10.37;50.49;97631.72;6297994;28;20202;-53
2024/03/18 11:44:21;;;;;;;8.57;5.83;;;;;;;10.43;47.74;97631.56;6297051;28;21142;-53
2024/03/18 11:47:22;;;;;;;8.47;5.13;;;;;;;10.59;50.69;97624.66;6309928;28;20200;-53
2024/03/18 11:50:23;;;;;;;11.13;6.20;;;;;;;10.52;47.68;97621.31;6299112;28;20612;-51
2024/03/18 11:53:24;;;;;;;10.70;5.87;;;;;;;10.54;49.21;97624.53;6293614;28;20192;-52
2024/03/18 11:56:26;;;;;;;10.63;5.67;;;;;;;10.47;47.37;97624.72;6294879;28;20197;-54
2024/03/18 11:59:27;;;;;;;12.37;6.53;;;;;;;10.03;48.16;97619.16;6296272;28;20556;-52
2024/03/18 12:02:28;;;;;;;8.73;6.13;;;;;;;9.92;49.37;97611.25;6307022;28;20216;-50
2024/03/18 12:05:29;;;;;;;10.50;5.83;;;;;;;10.24;48.44;97607.03;6301811;28;20756;-51
2024/03/18 12:08:32;;;;;;;11.30;5.87;;;;;;;10.27;48.03;97606.53;6297377;28;20205;-52
2024/03/18 12:11:33;;;;;;;8.90;5.47;;;;;;;10.01;50.92;97588.53;6310550;28;20186;-53
2024/03/18 12:14:34;;;;;;;7.83;5.20;;;;;;;10.41;48.18;97588.41;6299577;28;20193;-51
2024/03/18 12:17:36;;;;;;;10.57;5.57;;;;;;;10.49;47.97;97588.00;6286124;28;20216;-53
2024/03/18 12:20:36;;;;;;;9.77;5.97;;;;;;;10.40;47.81;97578.00;6298150;28;20210;-54
2024/03/18 12:30:19;;;;;;;11.00;5.87;;;;;;;10.71;49.09;97566.72;6288037;28;20710;-53
2024/03/18 12:33:20;;;;;;;8.13;6.60;;;;;;;10.87;47.44;97569.59;6301318;28;20201;-53
2024/03/18 12:36:23;;;;;;;8.67;5.10;;;;;;;10.58;47.41;97559.06;6292521;28;20660;-52
2024/03/18 12:39:24;;;;;;;11.43;5.83;;;;;;;10.44;50.29;97558.63;6294949;28;20189;-53
2024/03/18 12:42:25;;;;;;;8.10;5.77;;;;;;;10.53;50.50;97559.00;6297062;28;20202;-52
2024/03/18 12:45:26;;;;;;;7.90;5.57;;;;;;;10.66;48.90;97564.00;6289753;28;20230;-53
2024/03/18 12:48:28;;;;;;;9.50;5.70;;;;;;;10.91;46.99;97550.22;6294205;28;20197;-52
2024/03/18 12:51:31;;;;;;;8.40;5.30;;;;;;;10.76;47.24;97553.47;6291518;28;20190;-54
2024/03/18 12:54:32;;;;;;;8.30;5.20;;;;;;;11.09;46.92;97549.13;6291658;28;20190;-52
2024/03/18 12:57:33;;;;;;;9.97;5.80;;;;;;;11.38;45.73;97539.06;6300896;28;20200;-53
2024/03/18 13:00:34;;;;;;;9.93;5.67;;;;;;;11.57;45.95;97542.97;6284754;28;20212;-52
2024/03/18 13:03:36;;;;;;;9.10;6.00;;;;;;;11.50;45.72;97529.03;6304119;28;20218;-54
2024/03/18 13:06:37;;;;;;;9.60;5.63;;;;;;;11.45;45.15;97545.00;6293215;28;20185;-53
2024/03/18 13:09:38;;;;;;;8.67;5.53;;;;;;;11.36;45.46;97541.16;6297571;28;20202;-53
2024/03/18 13:12:41;;;;;;;10.20;5.50;;;;;;;11.22;46.40;97543.38;6295695;28;20191;-52
2024/03/18 13:15:44;;;;;;;10.33;5.63;;;;;;;11.11;47.20;97542.47;6288637;28;20190;-53
2024/03/18 13:18:46;;;;;;;8.03;5.27;;;;;;;11.03;49.08;97545.59;6303087;28;20194;-53
2024/03/18 13:21:47;;;;;;;10.00;5.47;;;;;;;10.84;47.58;97533.63;6304071;28;20991;-53
2024/03/18 13:24:48;;;;;;;7.87;5.43;;;;;;;10.77;48.55;97539.09;6294895;28;20261;-53
2024/03/18 13:27:49;;;;;;;11.90;6.07;;;;;;;10.68;47.43;97542.44;6293190;28;20204;-54
2024/03/18 13:30:51;;;;;;;12.47;5.53;;;;;;;10.57;48.09;97536.97;6292751;28;20213;-54
2024/03/18 13:33:53;;;;;;;11.50;5.93;;;;;;;10.42;48.77;97534.09;6297519;28;20651;-51
2024/03/18 13:36:54;;;;;;;12.73;5.90;;;;;;;10.40;48.39;97538.06;6297827;28;20194;-53
2024/03/18 13:39:55;;;;;;;7.67;5.13;;;;;;;10.33;48.47;97536.34;6294563;28;20243;-52
2024/03/18 13:42:56;;;;;;;6.90;4.77;;;;;;;10.30;48.83;97544.84;6305493;28;20574;-51
2024/03/18 13:45:57;;;;;;;8.17;4.73;;;;;;;10.33;49.49;97544.34;6307695;28;20866;-55
2024/03/18 13:49:03;;;;;;;10.03;5.17;;;;;;;10.45;48.33;97546.94;6280426;28;20649;-52
2024/03/18 13:52:04;;;;;;;12.37;6.60;;;;;;;10.23;49.02;97544.16;6281945;28;20240;-52
2024/03/18 13:55:06;;;;;;;6.97;5.17;;;;;;;10.20;49.59;97531.34;6292005;28;20190;-54
2024/03/18 13:58:07;;;;;;;7.60;5.37;;;;;;;10.31;51.50;97532.34;6291202;28;20219;-54
2024/03/18 14:01:12;;;;;;;10.60;6.30;;;;;;;10.27;49.20;97529.34;6290582;28;20190;-55
2024/03/18 14:04:13;;;;;;;10.83;6.40;;;;;;;9.97;49.81;97512.88;6293390;28;20206;-54
2024/03/18 14:07:14;;;;;;;8.87;5.83;;;;;;;10.02;50.18;97515.59;6289755;28;20208;-54
2024/03/18 14:10:17;;;;;;;6.70;5.27;;;;;;;9.88;51.26;97501.81;6291468;28;20241;-52
2024/03/18 14:13:18;;;;;;;11.83;6.73;;;;;;;9.34;51.91;97447.44;6297340;28;20190;-51
2024/03/18 14:16:19;;;;;;;10.87;5.87;;;;;;;9.85;51.91;97515.59;6292524;28;20232;-55
2024/03/18 14:19:20;;;;;;;10.43;5.47;;;;;;;9.88;52.34;97514.31;6293525;28;20193;-53
2024/03/18 14:22:21;;;;;;;10.33;5.77;;;;;;;9.59;52.73;97493.06;6305913;28;20710;-53
2024/03/18 14:25:22;;;;;;;11.27;6.73;;;;;;;9.79;51.32;97519.22;6290928;28;20201;-53